Time;durP1;ratioP1;P1;durP2;ratioP2;P2;SDS_P1;SDS_P2;PMS_P1;PMS_P2;Temp;Humidity;BMP_temperature;BMP_pressure;BME280_temperature;BME280_humidity;BME280_pressure;Samples;Min_cycle;Max_cycle;Signal;HPM_P1;HPM_P2
2021/11/29 00:00:53;;;;;;;4.33;3.10;;;-1.00;98.90;;;;;;2072155;28;20220;-62
2021/11/29 00:02:04;;;;;;;3.80;2.60;;;-1.00;98.70;;;;;;2072328;28;20287;-62
2021/11/29 00:03:10;;;;;;;4.00;2.80;;;-1.00;98.50;;;;;;2072992;28;20193;-62
2021/11/29 00:04:11;;;;;;;3.95;2.60;;;-1.00;98.10;;;;;;2072352;28;20251;-62
2021/11/29 00:05:12;;;;;;;4.00;2.90;;;-0.90;98.20;;;;;;2072395;28;20224;-61
2021/11/29 00:06:12;;;;;;;3.93;2.80;;;-0.90;98.10;;;;;;2072710;28;20622;-62
2021/11/29 00:07:13;;;;;;;4.53;2.40;;;-1.00;97.90;;;;;;2072979;28;20170;-62
2021/11/29 00:08:14;;;;;;;3.73;2.57;;;-1.00;98.10;;;;;;2072744;28;20233;-60
2021/11/29 00:09:15;;;;;;;4.50;2.90;;;-1.00;98.20;;;;;;2072491;28;20442;-60
2021/11/29 00:10:16;;;;;;;4.83;3.10;;;-0.90;98.20;;;;;;2071667;28;20208;-61
2021/11/29 00:11:17;;;;;;;3.50;2.63;;;-0.90;98.10;;;;;;2072992;28;20184;-61
2021/11/29 00:12:18;;;;;;;4.00;2.83;;;-0.90;98.00;;;;;;2072875;28;20425;-62
2021/11/29 00:13:19;;;;;;;3.67;2.70;;;-0.90;98.10;;;;;;2072877;28;20193;-62
2021/11/29 00:14:19;;;;;;;3.97;2.63;;;-0.90;97.90;;;;;;2072863;28;20268;-62
2021/11/29 00:15:20;;;;;;;3.83;2.43;;;-0.90;97.80;;;;;;2072558;28;20185;-62
2021/11/29 00:16:21;;;;;;;3.65;2.60;;;-0.90;97.80;;;;;;2072215;28;20261;-61
2021/11/29 00:17:22;;;;;;;6.30;3.27;;;-0.90;97.90;;;;;;2072410;28;20185;-62
2021/11/29 00:18:23;;;;;;;4.23;2.83;;;-0.90;98.00;;;;;;2072799;28;20444;-60
2021/11/29 00:19:23;;;;;;;3.30;2.47;;;-0.90;98.00;;;;;;2072865;28;20173;-61
2021/11/29 00:20:24;;;;;;;3.67;2.73;;;-0.80;98.00;;;;;;2072485;28;20218;-61
2021/11/29 00:21:26;;;;;;;3.70;2.90;;;-0.80;97.90;;;;;;2073002;28;20229;-62
2021/11/29 00:22:27;;;;;;;4.28;2.90;;;-0.80;97.80;;;;;;2072753;28;20201;-62
2021/11/29 00:23:28;;;;;;;3.58;2.80;;;-0.80;97.80;;;;;;2072873;28;20177;-61
2021/11/29 00:24:28;;;;;;;3.53;2.57;;;-0.80;97.70;;;;;;2072861;28;20623;-62
2021/11/29 00:25:29;;;;;;;5.63;2.93;;;-0.80;97.60;;;;;;2072863;28;20166;-62
2021/11/29 00:26:30;;;;;;;3.50;2.53;;;-0.80;97.60;;;;;;2072860;28;20227;-62
2021/11/29 00:27:31;;;;;;;3.13;2.60;;;-0.80;97.40;;;;;;2072870;28;20197;-62
2021/11/29 00:28:32;;;;;;;3.93;2.80;;;-0.80;97.20;;;;;;2072772;28;20507;-62
2021/11/29 00:29:33;;;;;;;2.83;2.13;;;-0.80;97.10;;;;;;2072730;28;20170;-61
2021/11/29 00:30:34;;;;;;;3.63;2.73;;;-0.90;97.00;;;;;;2072679;28;20622;-61
2021/11/29 00:31:34;;;;;;;4.27;2.90;;;-0.90;97.10;;;;;;2072868;28;20177;-61
2021/11/29 00:32:37;;;;;;;4.67;3.30;;;-1.00;97.20;;;;;;2072889;28;20210;-62
2021/11/29 00:33:39;;;;;;;3.42;2.63;;;-1.10;97.40;;;;;;2072886;28;20197;-62
2021/11/29 00:34:40;;;;;;;5.03;3.13;;;-1.10;97.60;;;;;;2072790;28;20249;-61
2021/11/29 00:35:40;;;;;;;4.10;2.90;;;-1.10;97.70;;;;;;2072963;28;20251;-61
2021/11/29 00:36:41;;;;;;;3.53;2.50;;;-1.10;97.80;;;;;;2072899;28;20173;-62
2021/11/29 00:37:42;;;;;;;4.13;3.00;;;-1.20;97.80;;;;;;2072870;28;20166;-62
2021/11/29 00:38:44;;;;;;;4.32;2.90;;;-1.10;97.90;;;;;;2072812;28;20177;-61
2021/11/29 00:39:44;;;;;;;4.40;2.97;;;-1.10;97.90;;;;;;2072425;28;20181;-62
2021/11/29 00:40:45;;;;;;;5.00;2.83;;;-1.10;97.90;;;;;;2072662;28;20224;-62
2021/11/29 00:41:46;;;;;;;3.87;2.80;;;-1.10;98.00;;;;;;2072850;28;20170;-60
2021/11/29 00:42:47;;;;;;;4.17;3.00;;;-1.00;97.90;;;;;;2072884;28;20177;-62
2021/11/29 00:43:48;;;;;;;4.63;3.13;;;-1.00;97.90;;;;;;2072883;28;20711;-62
2021/11/29 00:44:49;;;;;;;4.60;3.20;;;-0.90;97.80;;;;;;2072716;28;20635;-59
2021/11/29 00:45:50;;;;;;;3.77;2.87;;;-0.90;97.80;;;;;;2072770;28;20181;-60
2021/11/29 00:46:51;;;;;;;5.75;2.95;;;-1.00;97.80;;;;;;2072760;28;20794;-61
2021/11/29 00:47:52;;;;;;;4.20;2.77;;;-0.90;97.80;;;;;;2072827;28;20184;-59
2021/11/29 00:48:52;;;;;;;4.97;2.90;;;-0.90;97.70;;;;;;2072770;28;20654;-61
2021/11/29 00:49:53;;;;;;;4.23;3.03;;;-0.80;97.60;;;;;;2072415;28;20174;-62
2021/11/29 00:50:54;;;;;;;4.23;3.03;;;-0.80;97.50;;;;;;2072837;28;20260;-61
2021/11/29 00:51:54;;;;;;;3.87;2.40;;;-0.80;97.50;;;;;;2072769;28;20178;-59
2021/11/29 00:52:55;;;;;;;4.30;3.03;;;-0.80;97.50;;;;;;2072795;28;20265;-61
2021/11/29 00:53:56;;;;;;;4.30;3.10;;;-0.80;97.40;;;;;;2072689;28;20182;-60
2021/11/29 00:54:57;;;;;;;4.63;3.37;;;-0.80;97.40;;;;;;2072709;28;20260;-62
2021/11/29 00:55:58;;;;;;;5.03;3.13;;;-0.80;97.40;;;;;;2072748;28;20420;-61
2021/11/29 00:56:59;;;;;;;3.70;2.67;;;-0.80;97.40;;;;;;2072790;28;20185;-62
2021/11/29 00:57:59;;;;;;;5.03;3.40;;;-0.70;97.50;;;;;;2072599;28;20225;-60
2021/11/29 00:59:00;;;;;;;4.90;3.10;;;-0.70;97.40;;;;;;2073791;28;20552;-60
2021/11/29 01:00:05;;;;;;;4.27;2.83;;;-0.70;97.40;;;;;;2073835;28;20221;-61
2021/11/29 01:01:05;;;;;;;6.07;3.10;;;-0.70;97.30;;;;;;2074323;28;20178;-61
2021/11/29 01:02:06;;;;;;;4.27;3.10;;;-0.70;97.20;;;;;;2074281;28;20579;-61
2021/11/29 01:03:07;;;;;;;4.80;3.00;;;-0.60;97.20;;;;;;2074285;28;20177;-60
2021/11/29 01:04:08;;;;;;;5.60;3.70;;;-0.60;97.10;;;;;;2074239;28;20170;-60
2021/11/29 01:05:10;;;;;;;5.33;3.73;;;-0.60;97.10;;;;;;2074247;28;20269;-61
2021/11/29 01:06:10;;;;;;;6.00;3.50;;;-0.60;97.00;;;;;;2074170;28;20177;-61
2021/11/29 01:07:12;;;;;;;4.57;3.20;;;-0.60;97.50;;;;;;2073791;28;20277;-61
2021/11/29 01:08:12;;;;;;;4.10;2.75;;;-0.60;97.10;;;;;;2073587;28;20178;-59
2021/11/29 01:09:13;;;;;;;4.33;3.43;;;-0.60;97.60;;;;;;2074085;28;20789;-61
2021/11/29 01:10:16;;;;;;;5.23;3.40;;;-0.60;97.30;;;;;;2073895;28;20201;-61
2021/11/29 01:11:16;;;;;;;5.78;3.60;;;-0.60;97.30;;;;;;2074112;28;20262;-61
2021/11/29 01:12:17;;;;;;;4.03;3.10;;;-0.60;97.20;;;;;;2073569;28;20189;-62
2021/11/29 01:13:18;;;;;;;4.80;3.03;;;-0.60;97.20;;;;;;2073599;28;20240;-59
2021/11/29 01:14:18;;;;;;;4.33;3.20;;;-0.60;97.30;;;;;;2074078;28;20209;-60
2021/11/29 01:15:25;;;;;;;4.60;3.27;;;-0.50;97.30;;;;;;2074223;28;20527;-61
2021/11/29 01:16:25;;;;;;;3.85;2.85;;;-0.50;97.30;;;;;;2074156;28;20189;-61
2021/11/29 01:17:26;;;;;;;3.57;2.73;;;-0.50;97.40;;;;;;2074194;28;20653;-61
2021/11/29 01:18:27;;;;;;;4.93;2.88;;;-0.60;97.60;;;;;;2074079;28;20602;-62
2021/11/29 01:19:28;;;;;;;3.80;3.00;;;-0.50;97.70;;;;;;2074065;28;20178;-59
2021/11/29 01:20:29;;;;;;;4.90;3.20;;;-0.60;97.80;;;;;;2073417;28;20230;-61
2021/11/29 01:21:29;;;;;;;4.47;3.10;;;-0.60;97.90;;;;;;2074169;28;20455;-61
2021/11/29 01:22:30;;;;;;;4.33;2.97;;;-0.60;98.00;;;;;;2073993;28;20665;-62
2021/11/29 01:23:31;;;;;;;4.37;2.57;;;-0.50;98.00;;;;;;2074138;28;20182;-60
2021/11/29 01:24:32;;;;;;;3.72;2.60;;;-0.50;97.90;;;;;;2073987;28;20649;-61
2021/11/29 01:25:33;;;;;;;3.73;2.40;;;-0.50;97.90;;;;;;2074218;28;20207;-61
2021/11/29 01:26:34;;;;;;;3.03;2.05;;;-0.50;97.80;;;;;;2074065;28;20408;-61
2021/11/29 01:27:34;;;;;;;3.07;2.20;;;-0.60;97.60;;;;;;2074077;28;20176;-61
2021/11/29 01:28:35;;;;;;;3.13;1.97;;;-0.60;97.80;;;;;;2074109;28;20252;-60
2021/11/29 01:29:36;;;;;;;3.50;2.40;;;-0.60;97.90;;;;;;2073825;28;20638;-61
2021/11/29 01:30:37;;;;;;;2.70;2.00;;;-0.60;98.50;;;;;;2074002;28;20166;-61
2021/11/29 01:31:38;;;;;;;3.17;2.13;;;-0.70;97.90;;;;;;2074056;28;20176;-61
2021/11/29 01:32:38;;;;;;;2.97;2.13;;;-0.70;97.90;;;;;;2074002;28;20205;-61
2021/11/29 01:33:39;;;;;;;2.83;2.00;;;-0.70;98.10;;;;;;2073981;28;20212;-61
2021/11/29 01:34:40;;;;;;;2.50;2.20;;;-0.80;98.10;;;;;;2074056;28;20248;-61
2021/11/29 01:35:41;;;;;;;1.80;1.60;;;-0.80;98.00;;;;;;2073987;28;20248;-61
2021/11/29 01:36:42;;;;;;;2.63;2.00;;;-0.80;98.20;;;;;;2074078;28;20239;-61
2021/11/29 01:37:43;;;;;;;2.47;1.83;;;-0.70;98.20;;;;;;2073935;28;20224;-61
2021/11/29 01:38:43;;;;;;;2.83;2.10;;;-0.70;98.10;;;;;;2073931;28;20251;-61
2021/11/29 01:39:44;;;;;;;2.63;1.60;;;-0.80;98.00;;;;;;2073707;28;20177;-61
2021/11/29 01:40:45;;;;;;;1.90;1.70;;;-0.80;97.80;;;;;;2074012;28;20209;-62
2021/11/29 01:41:47;;;;;;;2.30;1.77;;;-0.80;97.30;;;;;;2073952;28;20551;-62
2021/11/29 01:42:59;;;;;;;2.30;1.77;;;-0.80;97.30;;;;;;2074064;28;20186;-63
2021/11/29 01:44:00;;;;;;;2.13;1.67;;;-0.80;97.30;;;;;;2073981;28;20201;-63
2021/11/29 01:45:01;;;;;;;2.00;1.70;;;-0.90;97.20;;;;;;2074121;28;20194;-62
2021/11/29 01:46:02;;;;;;;2.85;1.88;;;-0.90;96.90;;;;;;2073906;28;20178;-63
2021/11/29 01:47:06;;;;;;;3.00;1.70;;;-0.90;97.00;;;;;;2074056;28;20531;-62
2021/11/29 01:48:08;;;;;;;3.90;1.90;;;-0.90;97.10;;;;;;2073898;28;20672;-62
2021/11/29 01:49:09;;;;;;;2.75;1.92;;;-0.90;97.30;;;;;;2073897;28;20184;-62
2021/11/29 01:50:10;;;;;;;2.37;1.70;;;-1.00;97.20;;;;;;2073580;28;20612;-62
2021/11/29 01:51:11;;;;;;;2.70;2.07;;;-1.00;97.10;;;;;;2073913;28;20168;-62
2021/11/29 01:52:12;;;;;;;2.20;2.00;;;-1.00;97.00;;;;;;2073953;28;20182;-63
2021/11/29 01:53:14;;;;;;;2.10;1.90;;;-1.00;96.90;;;;;;2074040;28;20189;-62
2021/11/29 01:54:14;;;;;;;2.70;2.00;;;-1.10;96.80;;;;;;2073819;28;20174;-62
2021/11/29 01:55:17;;;;;;;2.93;2.03;;;-1.10;97.10;;;;;;2073923;28;20185;-62
2021/11/29 01:56:18;;;;;;;3.78;2.17;;;-1.20;97.40;;;;;;2073818;28;20220;-62
2021/11/29 01:57:19;;;;;;;3.60;2.07;;;-1.10;97.60;;;;;;2073917;28;20174;-62
2021/11/29 01:58:21;;;;;;;2.80;2.10;;;-1.20;97.70;;;;;;2073776;28;20176;-62
2021/11/29 01:59:22;;;;;;;2.35;2.15;;;-1.20;97.80;;;;;;2073090;28;20216;-62
2021/11/29 02:00:28;;;;;;;2.63;2.27;;;-1.20;97.90;;;;;;2072892;28;20628;-62
2021/11/29 02:01:29;;;;;;;3.28;2.33;;;-1.20;97.90;;;;;;2073847;28;20169;-62
2021/11/29 02:02:30;;;;;;;2.70;2.27;;;-1.20;97.70;;;;;;2073756;28;20188;-62
2021/11/29 02:03:31;;;;;;;6.57;2.87;;;-1.20;97.60;;;;;;2073859;28;20176;-62
2021/11/29 02:04:32;;;;;;;2.97;2.20;;;-1.20;97.60;;;;;;2073119;28;20761;-63
2021/11/29 02:05:33;;;;;;;3.63;2.50;;;-1.20;97.70;;;;;;2073197;28;20173;-62
2021/11/29 02:06:34;;;;;;;3.78;2.78;;;-1.20;97.50;;;;;;2073822;28;20174;-62
2021/11/29 02:07:35;;;;;;;2.83;2.35;;;-1.30;97.50;;;;;;2073775;28;20165;-62
2021/11/29 02:08:36;;;;;;;4.73;3.10;;;-1.30;97.50;;;;;;2073747;28;20607;-62
2021/11/29 02:09:39;;;;;;;3.53;2.30;;;-1.30;97.40;;;;;;2073010;28;20193;-63
2021/11/29 02:10:40;;;;;;;3.28;2.70;;;-1.30;97.40;;;;;;2073231;28;20242;-63
2021/11/29 02:11:41;;;;;;;3.47;2.50;;;-1.30;97.40;;;;;;2073709;28;20263;-62
2021/11/29 02:12:42;;;;;;;3.30;2.50;;;-1.30;97.50;;;;;;2073036;28;20186;-61
2021/11/29 02:13:42;;;;;;;2.83;2.50;;;-1.30;97.70;;;;;;2073110;28;20578;-63
2021/11/29 02:14:46;;;;;;;3.77;2.67;;;-1.30;97.80;;;;;;2073743;28;20186;-63
2021/11/29 02:15:51;;;;;;;3.97;2.42;;;-1.30;97.70;;;;;;2073665;28;20718;-62
2021/11/29 02:16:51;;;;;;;6.30;2.33;;;-1.30;97.60;;;;;;2073658;28;20185;-62
2021/11/29 02:17:52;;;;;;;3.03;2.30;;;-1.40;97.70;;;;;;2073680;28;20661;-62
2021/11/29 02:18:54;;;;;;;4.33;2.53;;;-1.40;97.90;;;;;;2073624;28;20170;-62
2021/11/29 02:19:55;;;;;;;4.57;2.72;;;-1.40;97.90;;;;;;2073358;28;20270;-62
2021/11/29 02:21:21;;;;;;;3.65;2.60;;;-1.40;98.00;;;;;;2072806;28;20411;-61
2021/11/29 02:22:22;;;;;;;3.75;2.70;;;-1.40;97.90;;;;;;2068316;28;20204;-62
2021/11/29 02:23:23;;;;;;;4.20;2.97;;;-1.40;97.80;;;;;;2073054;28;20635;-62
2021/11/29 02:24:24;;;;;;;3.47;2.60;;;-1.40;97.70;;;;;;2073125;28;20161;-63
2021/11/29 02:25:24;;;;;;;4.60;2.93;;;-1.40;97.70;;;;;;2073055;28;20618;-61
2021/11/29 02:26:28;;;;;;;3.63;2.33;;;-1.40;97.70;;;;;;2073702;28;20223;-61
2021/11/29 02:27:29;;;;;;;3.85;2.63;;;-1.50;97.80;;;;;;2073603;28;20256;-62
2021/11/29 02:28:31;;;;;;;3.80;2.67;;;-1.50;97.80;;;;;;2073611;28;20580;-62
2021/11/29 02:29:34;;;;;;;4.07;2.45;;;-1.50;97.90;;;;;;2073419;28;20169;-62
2021/11/29 02:30:35;;;;;;;3.42;2.20;;;-1.50;97.90;;;;;;2073561;28;20257;-62
2021/11/29 02:31:43;;;;;;;2.87;2.43;;;-1.50;97.90;;;;;;2073510;28;20184;-62
2021/11/29 02:32:44;;;;;;;3.25;2.40;;;-1.50;97.90;;;;;;2073628;28;20564;-60
2021/11/29 02:33:45;;;;;;;2.83;2.53;;;-1.50;97.70;;;;;;2073615;28;20264;-63
2021/11/29 02:34:47;;;;;;;2.53;2.20;;;-1.50;97.70;;;;;;2073614;28;20658;-62
2021/11/29 02:35:47;;;;;;;3.35;2.45;;;-1.50;97.80;;;;;;2073524;28;20192;-60
2021/11/29 02:36:53;;;;;;;4.73;2.73;;;-1.50;97.90;;;;;;2073503;28;20174;-60
2021/11/29 02:37:53;;;;;;;4.40;2.70;;;-1.40;97.90;;;;;;2072910;28;20204;-62
2021/11/29 02:38:54;;;;;;;3.93;2.90;;;-1.40;98.00;;;;;;2072972;28;20646;-62
2021/11/29 02:39:55;;;;;;;3.13;2.65;;;-1.40;97.80;;;;;;2073294;28;20209;-62
2021/11/29 02:40:56;;;;;;;3.30;2.27;;;-1.40;97.70;;;;;;2073592;28;20231;-62
2021/11/29 02:42:00;;;;;;;4.13;2.60;;;-1.40;97.70;;;;;;2073536;28;20301;-62
2021/11/29 02:43:01;;;;;;;3.20;2.47;;;-1.40;97.70;;;;;;2073446;28;20177;-61
2021/11/29 02:44:03;;;;;;;3.20;2.70;;;-1.30;97.60;;;;;;2073474;28;20181;-62
2021/11/29 02:45:04;;;;;;;3.42;2.30;;;-1.30;97.60;;;;;;2073646;28;20173;-63
2021/11/29 02:46:05;;;;;;;4.43;3.00;;;-1.30;97.60;;;;;;2073520;28;20204;-62
2021/11/29 02:47:06;;;;;;;3.10;2.80;;;-1.30;97.50;;;;;;2073542;28;20173;-62
2021/11/29 02:48:07;;;;;;;3.15;2.30;;;-1.30;96.70;;;;;;2073407;28;20498;-61
2021/11/29 02:49:10;;;;;;;3.47;2.30;;;-1.30;96.40;;;;;;2073592;28;20224;-62
2021/11/29 02:50:10;;;;;;;3.80;2.40;;;-1.30;96.60;;;;;;2073150;28;20562;-62
2021/11/29 02:51:32;;;;;;;4.27;2.57;;;-1.30;96.80;;;;;;2073497;28;20264;-61
2021/11/29 02:52:33;;;;;;;3.28;2.60;;;-1.30;96.40;;;;;;2073400;28;20181;-63
2021/11/29 02:53:34;;;;;;;3.73;2.37;;;-1.40;96.30;;;;;;2073478;28;20170;-62
2021/11/29 02:54:39;;;;;;;2.93;2.60;;;-1.40;96.40;;;;;;2072726;28;20519;-62
2021/11/29 02:55:39;;;;;;;3.47;2.35;;;-1.50;96.40;;;;;;2072914;28;20558;-62
2021/11/29 02:56:46;;;;;;;4.50;2.37;;;-1.50;96.40;;;;;;2073386;28;20192;-61
2021/11/29 02:57:46;;;;;;;3.53;2.50;;;-1.50;96.60;;;;;;2073377;28;20185;-62
2021/11/29 02:58:47;;;;;;;4.13;2.80;;;-1.50;96.70;;;;;;2073197;28;20283;-62
2021/11/29 02:59:48;;;;;;;3.00;2.30;;;-1.50;96.80;;;;;;2073045;28;20177;-62
2021/11/29 03:00:49;;;;;;;4.47;2.80;;;-1.50;96.80;;;;;;2073208;28;20262;-61
2021/11/29 03:01:54;;;;;;;4.30;2.60;;;-1.50;96.70;;;;;;2073338;28;20227;-61
2021/11/29 03:03:10;;;;;;;3.97;2.63;;;-1.50;96.70;;;;;;2073332;28;20170;-60
2021/11/29 03:04:11;;;;;;;3.35;2.45;;;-1.50;96.60;;;;;;2073342;28;20236;-60
2021/11/29 03:05:12;;;;;;;3.83;2.72;;;-1.50;96.70;;;;;;2073334;28;20181;-62
2021/11/29 03:06:13;;;;;;;3.73;3.00;;;-1.50;96.70;;;;;;2073387;28;20185;-62
2021/11/29 03:07:15;;;;;;;3.27;2.40;;;-1.50;96.80;;;;;;2073332;28;20196;-62
2021/11/29 03:08:15;;;;;;;4.28;3.05;;;-1.50;96.90;;;;;;2073335;28;20235;-62
2021/11/29 03:09:17;;;;;;;5.87;2.93;;;-1.50;96.90;;;;;;2073143;28;20221;-62
2021/11/29 03:10:17;;;;;;;4.15;3.00;;;-1.40;96.80;;;;;;2073034;28;20684;-61
2021/11/29 03:11:19;;;;;;;4.50;3.50;;;-1.40;97.30;;;;;;2073251;28;20193;-62
2021/11/29 03:12:19;;;;;;;4.45;3.10;;;-1.40;96.70;;;;;;2073339;28;20239;-61
2021/11/29 03:13:20;;;;;;;3.37;2.67;;;-1.40;96.60;;;;;;2073269;28;20247;-62
2021/11/29 03:14:22;;;;;;;3.70;2.97;;;-1.30;96.60;;;;;;2073299;28;20177;-62
2021/11/29 03:15:23;;;;;;;5.28;3.38;;;-1.30;96.70;;;;;;2072867;28;20181;-61
2021/11/29 03:16:24;;;;;;;5.13;3.00;;;-1.30;96.70;;;;;;2073250;28;20260;-60
2021/11/29 03:17:25;;;;;;;4.00;3.25;;;-1.30;96.50;;;;;;2073189;28;20208;-62
2021/11/29 03:18:39;;;;;;;4.90;3.67;;;-1.40;96.70;;;;;;2073287;28;20173;-60
2021/11/29 03:19:42;;;;;;;5.47;3.33;;;-1.30;96.70;;;;;;2072779;28;20264;-61
2021/11/29 03:20:42;;;;;;;5.15;3.08;;;-1.40;96.80;;;;;;2073002;28;20221;-62
2021/11/29 03:21:43;;;;;;;5.03;3.73;;;-1.30;97.20;;;;;;2072499;28;20527;-61
2021/11/29 03:22:44;;;;;;;5.53;3.60;;;-1.30;96.80;;;;;;2073124;28;20521;-62
2021/11/29 03:23:48;;;;;;;4.95;3.63;;;-1.30;96.90;;;;;;2073103;28;20753;-61
2021/11/29 03:24:49;;;;;;;5.22;3.60;;;-1.30;96.90;;;;;;2073215;28;20190;-62
2021/11/29 03:25:50;;;;;;;5.33;3.50;;;-1.30;96.70;;;;;;2073005;28;20212;-61
2021/11/29 03:26:51;;;;;;;8.23;3.83;;;-1.30;96.60;;;;;;2073141;28;20267;-61
2021/11/29 03:27:52;;;;;;;5.45;3.33;;;-1.30;96.70;;;;;;2073088;28;20416;-62
2021/11/29 03:28:59;;;;;;;5.03;3.60;;;-1.30;96.80;;;;;;2073176;28;20673;-61
2021/11/29 03:30:00;;;;;;;4.57;3.53;;;-1.40;96.50;;;;;;2072829;28;20280;-62
2021/11/29 03:31:01;;;;;;;7.00;4.03;;;-1.40;96.40;;;;;;2073116;28;20220;-62
2021/11/29 03:32:05;;;;;;;5.47;3.80;;;-1.50;96.60;;;;;;2073108;28;20682;-62
2021/11/29 03:33:06;;;;;;;4.30;3.28;;;-1.50;96.80;;;;;;2073187;28;20174;-61
2021/11/29 03:34:10;;;;;;;5.70;3.85;;;-1.40;96.90;;;;;;2073076;28;20192;-61
2021/11/29 03:35:11;;;;;;;6.07;3.92;;;-1.40;96.90;;;;;;2073116;28;20657;-62
2021/11/29 03:36:12;;;;;;;7.30;4.40;;;-1.40;97.00;;;;;;2072908;28;20188;-62
2021/11/29 03:37:13;;;;;;;7.45;4.50;;;-1.40;97.10;;;;;;2073126;28;20177;-61
2021/11/29 03:38:14;;;;;;;6.25;4.32;;;-1.40;97.20;;;;;;2073073;28;20202;-61
2021/11/29 03:39:22;;;;;;;6.60;4.27;;;-1.40;97.30;;;;;;2073112;28;20184;-61
2021/11/29 03:40:23;;;;;;;6.20;3.60;;;-1.40;97.30;;;;;;2072876;28;20209;-61
2021/11/29 03:41:25;;;;;;;6.63;4.87;;;-1.40;97.50;;;;;;2073108;28;20175;-62
2021/11/29 03:42:25;;;;;;;8.77;4.78;;;-1.40;97.40;;;;;;2073027;28;20162;-62
2021/11/29 03:43:26;;;;;;;5.97;4.13;;;-1.40;97.10;;;;;;2073177;28;20197;-62
2021/11/29 03:44:27;;;;;;;8.53;4.57;;;-1.40;97.20;;;;;;2073024;28;20173;-62
2021/11/29 03:45:28;;;;;;;7.40;5.00;;;-1.40;97.30;;;;;;2073072;28;20602;-62
2021/11/29 03:46:29;;;;;;;8.07;5.53;;;-1.30;97.40;;;;;;2073073;28;20673;-61
2021/11/29 03:47:30;;;;;;;8.95;5.45;;;-1.30;97.40;;;;;;2073014;28;20594;-62
2021/11/29 03:48:30;;;;;;;8.80;5.33;;;-1.40;97.70;;;;;;2073020;28;20197;-62
2021/11/29 03:49:31;;;;;;;10.50;6.17;;;-1.40;97.70;;;;;;2072945;28;20176;-62
2021/11/29 03:50:32;;;;;;;8.48;5.32;;;-1.40;97.70;;;;;;2072803;28;20185;-62
2021/11/29 03:51:33;;;;;;;10.43;6.33;;;-1.40;97.80;;;;;;2073058;28;20253;-62
2021/11/29 03:52:33;;;;;;;7.57;5.23;;;-1.40;98.00;;;;;;2073018;28;20185;-61
2021/11/29 03:53:35;;;;;;;8.97;5.87;;;-1.40;97.90;;;;;;2072999;28;20177;-61
2021/11/29 03:54:36;;;;;;;8.80;5.75;;;-1.30;97.80;;;;;;2072958;28;20623;-62
2021/11/29 03:55:37;;;;;;;9.97;6.00;;;-1.30;97.90;;;;;;2073059;28;20198;-62
2021/11/29 03:56:38;;;;;;;9.35;6.00;;;-1.30;98.00;;;;;;2071277;28;20210;-62
2021/11/29 03:57:39;;;;;;;11.18;5.85;;;-1.30;98.10;;;;;;2072787;28;20180;-61
2021/11/29 03:58:39;;;;;;;11.50;5.83;;;-1.30;98.10;;;;;;2072749;28;20193;-62
2021/11/29 03:59:40;;;;;;;11.47;6.23;;;-1.30;98.00;;;;;;2071919;28;20231;-62
2021/11/29 04:00:41;;;;;;;9.20;5.67;;;-1.30;97.80;;;;;;2072256;28;20217;-61
2021/11/29 04:01:43;;;;;;;9.50;5.80;;;-1.20;97.70;;;;;;2073017;28;20256;-62
2021/11/29 04:02:44;;;;;;;8.02;5.22;;;-1.20;97.40;;;;;;2072865;28;20272;-62
2021/11/29 04:03:45;;;;;;;8.93;5.57;;;-1.30;97.70;;;;;;2073018;28;20646;-62
2021/11/29 04:04:46;;;;;;;8.00;5.65;;;-1.30;97.20;;;;;;2072964;28;20712;-62
2021/11/29 04:05:47;;;;;;;7.77;5.27;;;-1.30;97.30;;;;;;2072508;28;20193;-62
2021/11/29 04:06:47;;;;;;;10.10;6.40;;;-1.30;97.30;;;;;;2072863;28;20184;-62
2021/11/29 04:07:48;;;;;;;10.47;6.07;;;-1.20;97.30;;;;;;2072888;28;20178;-62
2021/11/29 04:08:49;;;;;;;10.60;5.77;;;-1.20;97.20;;;;;;2072962;28;20647;-62
2021/11/29 04:09:50;;;;;;;9.60;6.00;;;-1.20;97.10;;;;;;2072711;28;20231;-62
2021/11/29 04:10:52;;;;;;;10.03;6.13;;;-1.20;96.90;;;;;;2072906;28;20201;-62
2021/11/29 04:11:52;;;;;;;8.68;5.40;;;-1.20;96.90;;;;;;2072927;28;20178;-62
2021/11/29 04:12:53;;;;;;;8.30;5.40;;;-1.20;96.80;;;;;;2072883;28;20722;-62
2021/11/29 04:13:54;;;;;;;8.13;5.43;;;-1.30;96.70;;;;;;2072819;28;20650;-61
2021/11/29 04:14:55;;;;;;;8.77;5.60;;;-1.30;96.60;;;;;;2072937;28;20185;-61
2021/11/29 04:15:56;;;;;;;9.40;5.57;;;-1.30;96.70;;;;;;2072947;28;20189;-60
2021/11/29 04:16:56;;;;;;;9.90;6.10;;;-1.30;96.60;;;;;;2072895;28;20240;-62
2021/11/29 04:17:57;;;;;;;11.07;6.33;;;-1.30;96.80;;;;;;2072905;28;20212;-62
2021/11/29 04:18:58;;;;;;;10.97;6.63;;;-1.30;97.00;;;;;;2072781;28;20268;-62
2021/11/29 04:19:59;;;;;;;9.85;5.45;;;-1.30;97.00;;;;;;2072665;28;20251;-62
2021/11/29 04:21:00;;;;;;;10.13;5.82;;;-1.40;97.00;;;;;;2072904;28;20249;-61
2021/11/29 04:22:00;;;;;;;10.63;6.10;;;-1.40;96.90;;;;;;2072904;28;20185;-62
2021/11/29 04:23:02;;;;;;;9.33;5.80;;;-1.40;97.00;;;;;;2072908;28;20214;-62
2021/11/29 04:24:03;;;;;;;8.80;5.65;;;-1.40;97.00;;;;;;2072232;28;20219;-60
2021/11/29 04:25:06;;;;;;;10.30;6.60;;;-1.40;96.90;;;;;;2072352;28;20185;-61
2021/11/29 04:26:07;;;;;;;9.70;5.95;;;-1.50;97.00;;;;;;2072700;28;20189;-61
2021/11/29 04:27:08;;;;;;;10.90;6.67;;;-1.40;97.10;;;;;;2072867;28;20184;-61
2021/11/29 04:28:09;;;;;;;12.20;6.53;;;-1.40;97.30;;;;;;2072801;28;20224;-62
2021/11/29 04:29:21;;;;;;;9.60;6.03;;;-1.40;97.30;;;;;;2072918;28;20234;-62
2021/11/29 04:30:26;;;;;;;12.70;6.50;;;-1.40;97.40;;;;;;2072564;28;20215;-61
2021/11/29 04:31:26;;;;;;;9.13;5.97;;;-1.40;97.30;;;;;;2072956;28;20173;-62
2021/11/29 04:32:27;;;;;;;9.33;6.03;;;-1.40;97.20;;;;;;2073092;28;20653;-62
2021/11/29 04:33:28;;;;;;;10.77;6.27;;;-1.40;97.30;;;;;;2074598;28;20193;-61
2021/11/29 04:34:28;;;;;;;8.90;6.13;;;-1.40;97.40;;;;;;2074466;28;20168;-61
2021/11/29 04:35:29;;;;;;;9.47;5.90;;;-1.40;97.40;;;;;;2074482;28;20158;-61
2021/11/29 04:36:30;;;;;;;8.43;5.77;;;-1.40;97.50;;;;;;2074386;28;20244;-62
2021/11/29 04:37:31;;;;;;;8.83;5.67;;;-1.40;97.50;;;;;;2074621;28;20667;-62
2021/11/29 04:38:32;;;;;;;10.07;6.67;;;-1.40;97.60;;;;;;2074410;28;20169;-62
2021/11/29 04:39:35;;;;;;;10.93;6.65;;;-1.40;97.70;;;;;;2074288;28;20635;-61
2021/11/29 04:40:35;;;;;;;10.13;6.25;;;-1.40;97.60;;;;;;2073603;28;20224;-61
2021/11/29 04:41:36;;;;;;;10.70;6.80;;;-1.40;97.70;;;;;;2073968;28;20179;-61
2021/11/29 04:42:37;;;;;;;11.20;6.70;;;-1.40;97.70;;;;;;2074444;28;20186;-62
2021/11/29 04:43:38;;;;;;;10.73;6.03;;;-1.30;97.60;;;;;;2074550;28;20294;-62
2021/11/29 04:44:38;;;;;;;10.60;6.90;;;-1.30;97.40;;;;;;2074405;28;20246;-61
2021/11/29 04:45:39;;;;;;;11.10;5.93;;;-1.30;97.30;;;;;;2074394;28;20181;-62
2021/11/29 04:46:40;;;;;;;14.03;6.90;;;-1.40;97.20;;;;;;2074436;28;20169;-59
2021/11/29 04:47:41;;;;;;;7.50;4.83;;;-1.40;97.30;;;;;;2074493;28;20244;-60
2021/11/29 04:48:41;;;;;;;10.10;5.70;;;-1.40;97.20;;;;;;2074329;28;20661;-61
2021/11/29 04:49:42;;;;;;;9.83;6.23;;;-1.40;97.10;;;;;;2074089;28;20578;-60
2021/11/29 04:50:43;;;;;;;12.97;6.43;;;-1.40;97.10;;;;;;2074223;28;20193;-62
2021/11/29 04:51:43;;;;;;;11.53;5.70;;;-1.40;97.10;;;;;;2074362;28;20220;-62
2021/11/29 04:52:44;;;;;;;9.33;6.17;;;-1.40;97.20;;;;;;2074301;28;20180;-61
2021/11/29 04:53:45;;;;;;;11.43;6.57;;;-1.40;97.30;;;;;;2074406;28;20181;-62
2021/11/29 04:54:46;;;;;;;11.63;5.87;;;-1.40;97.30;;;;;;2074297;28;20173;-62
2021/11/29 04:55:46;;;;;;;11.60;6.40;;;-1.30;97.40;;;;;;2074320;28;20219;-62
2021/11/29 04:56:48;;;;;;;11.20;6.60;;;-1.30;97.40;;;;;;2074194;28;20176;-62
2021/11/29 04:57:48;;;;;;;8.52;5.55;;;-1.30;97.30;;;;;;2074332;28;20180;-61
2021/11/29 04:58:49;;;;;;;8.73;5.77;;;-1.20;97.20;;;;;;2074311;28;20185;-61
2021/11/29 04:59:50;;;;;;;9.73;6.15;;;-1.20;96.90;;;;;;2073997;28;20177;-61
2021/11/29 05:00:52;;;;;;;11.30;6.87;;;-1.20;97.00;;;;;;2074168;28;20213;-62
2021/11/29 05:01:55;;;;;;;10.98;6.35;;;-1.20;97.00;;;;;;2074239;28;20181;-61
2021/11/29 05:02:55;;;;;;;10.00;5.68;;;-1.10;96.80;;;;;;2073546;28;20193;-61
2021/11/29 05:03:56;;;;;;;10.27;6.03;;;-1.20;96.70;;;;;;2073665;28;20185;-62
2021/11/29 05:04:57;;;;;;;9.87;5.83;;;-1.20;96.70;;;;;;2074130;28;20271;-62
2021/11/29 05:05:58;;;;;;;9.73;5.78;;;-1.20;96.70;;;;;;2074307;28;20204;-62
2021/11/29 05:06:59;;;;;;;9.27;5.83;;;-1.20;96.70;;;;;;2074156;28;20637;-61
2021/11/29 05:07:59;;;;;;;10.13;6.33;;;-1.10;96.60;;;;;;2074273;28;20174;-62
2021/11/29 05:09:00;;;;;;;12.33;7.10;;;-1.20;96.50;;;;;;2074154;28;20204;-62
2021/11/29 05:10:02;;;;;;;8.27;5.90;;;-1.10;96.70;;;;;;2073956;28;20186;-62
2021/11/29 05:11:03;;;;;;;10.57;6.28;;;-1.20;96.70;;;;;;2074217;28;20195;-62
2021/11/29 05:12:05;;;;;;;9.75;5.85;;;-1.10;96.80;;;;;;2074092;28;20192;-62
2021/11/29 05:13:05;;;;;;;10.60;5.65;;;-1.20;96.70;;;;;;2074079;28;20189;-61
2021/11/29 05:14:06;;;;;;;9.10;5.57;;;-1.20;96.80;;;;;;2073570;28;20230;-62
2021/11/29 05:15:08;;;;;;;7.80;5.38;;;-1.30;96.70;;;;;;2073681;28;20192;-61
2021/11/29 05:16:09;;;;;;;8.90;5.68;;;-1.30;96.70;;;;;;2074219;28;20279;-62
2021/11/29 05:17:10;;;;;;;9.70;6.32;;;-1.30;96.80;;;;;;2074321;28;20193;-62
2021/11/29 05:18:11;;;;;;;9.93;5.97;;;-1.30;97.00;;;;;;2074052;28;20276;-62
2021/11/29 05:19:12;;;;;;;8.57;5.47;;;-1.30;96.90;;;;;;2074087;28;20275;-61
2021/11/29 05:20:12;;;;;;;9.18;5.63;;;-1.30;96.90;;;;;;2073745;28;20201;-62